Time;durP1;ratioP1;P1;durP2;ratioP2;P2;SDS_P1;SDS_P2;PMS_P1;PMS_P2;Temp;Humidity;BMP_temperature;BMP_pressure;BME280_temperature;BME280_humidity;BME280_pressure;Samples;Min_cycle;Max_cycle;Signal;HPM_P1;HPM_P2
2022/11/18 00:01:32;;;;;;;6.63;3.63;;;;;;;-6.06;73.24;98401.19;4937607;29;20047;-67
2022/11/18 00:03:58;;;;;;;7.05;3.47;;;;;;;-6.09;72.65;98410.03;4937963;29;20064;-65
2022/11/18 00:06:26;;;;;;;8.18;3.40;;;;;;;-6.04;71.91;98397.50;4920758;29;20043;-66
2022/11/18 00:08:52;;;;;;;6.15;3.25;;;;;;;-6.11;72.41;98406.81;4938099;29;20059;-67
2022/11/18 00:14:17;;;;;;;6.85;3.28;;;;;;;-6.11;72.44;98399.09;4923672;29;20572;-66
2022/11/18 00:16:47;;;;;;;5.13;3.33;;;;;;;-6.13;72.35;98388.09;4938374;29;20397;-66
2022/11/18 00:19:13;;;;;;;6.25;3.38;;;;;;;-6.06;72.36;98391.69;4938250;29;20040;-66
2022/11/18 00:21:38;;;;;;;5.30;3.35;;;;;;;-6.11;72.25;98383.59;4906027;29;20055;-66
2022/11/18 00:24:04;;;;;;;6.00;3.58;;;;;;;-6.13;72.08;98389.88;4920695;29;20052;-66
2022/11/18 00:26:31;;;;;;;7.43;3.45;;;;;;;-6.27;72.92;98392.06;4904830;29;20044;-67
2022/11/18 00:28:57;;;;;;;5.93;3.45;;;;;;;-6.26;72.25;98372.28;4920099;29;20421;-66
2022/11/18 00:31:22;;;;;;;4.35;3.20;;;;;;;-6.13;72.13;98382.16;4936719;29;20040;-65
2022/11/18 00:33:48;;;;;;;4.00;3.10;;;;;;;-6.25;72.17;98376.44;4919800;29;20051;-66
2022/11/18 00:36:14;;;;;;;7.28;3.45;;;;;;;-6.25;72.35;98374.69;4903860;29;20044;-67
2022/11/18 00:38:39;;;;;;;5.82;2.80;;;;;;;-6.26;72.17;98377.44;4937216;29;20051;-67
2022/11/18 00:41:07;;;;;;;7.00;3.53;;;;;;;-6.27;72.42;98371.44;4935471;29;20086;-67
2022/11/18 00:43:33;;;;;;;5.55;3.90;;;;;;;-6.28;72.74;98372.41;4936952;29;20054;-66
2022/11/18 00:45:59;;;;;;;5.47;3.20;;;;;;;-6.24;72.60;98371.13;4919528;29;20502;-66
2022/11/18 00:48:24;;;;;;;6.43;4.15;;;;;;;-6.26;72.71;98370.50;4919530;29;20059;-66
2022/11/18 00:50:56;;;;;;;7.53;3.80;;;;;;;-6.22;72.81;98371.78;4919436;29;20091;-66
2022/11/18 00:53:23;;;;;;;6.95;3.85;;;;;;;-6.24;72.53;98362.59;4935377;29;20055;-67
2022/11/18 00:55:49;;;;;;;5.20;3.00;;;;;;;-6.30;73.14;98376.09;4903638;29;20050;-66
2022/11/18 00:58:15;;;;;;;5.80;3.47;;;;;;;-6.24;72.96;98368.53;4936772;29;20052;-66
2022/11/18 01:00:42;;;;;;;10.05;4.05;;;;;;;-6.21;72.70;98360.50;4919265;29;20429;-67
2022/11/18 01:03:09;;;;;;;7.68;3.95;;;;;;;-6.31;72.81;98349.50;4919224;29;20054;-66
2022/11/18 01:05:36;;;;;;;4.35;3.17;;;;;;;-6.28;72.57;98356.13;4918848;29;20509;-67
2022/11/18 01:08:03;;;;;;;4.78;2.75;;;;;;;-6.40;73.16;98356.41;4936663;29;20445;-66
2022/11/18 01:10:29;;;;;;;5.32;3.40;;;;;;;-6.32;73.10;98368.53;4919164;29;20051;-67
2022/11/18 01:15:40;;;;;;;6.10;3.38;;;;;;;-6.17;72.47;98348.91;4905777;29;20568;-66
2022/11/18 01:18:06;;;;;;;4.00;2.85;;;;;;;-6.16;72.34;98360.03;4919350;29;20047;-66
2022/11/18 01:20:33;;;;;;;5.18;3.60;;;;;;;-6.24;72.22;98347.91;4903245;29;20047;-67
2022/11/18 01:22:58;;;;;;;5.25;3.17;;;;;;;-6.26;72.62;98344.69;4936048;29;20497;-67
2022/11/18 01:25:24;;;;;;;6.20;3.55;;;;;;;-6.22;72.24;98356.31;4936121;29;20050;-66
2022/11/18 01:27:50;;;;;;;5.10;3.17;;;;;;;-6.33;72.17;98348.03;4935788;29;20043;-68
2022/11/18 01:30:16;;;;;;;4.13;2.90;;;;;;;-6.23;72.36;98352.13;4887361;29;20147;-67
2022/11/18 01:32:42;;;;;;;6.72;3.78;;;;;;;-6.24;72.16;98341.94;4935925;29;20048;-67
2022/11/18 01:35:09;;;;;;;5.65;3.33;;;;;;;-6.26;71.60;98343.91;4918956;29;20497;-66
2022/11/18 01:37:34;;;;;;;4.43;2.75;;;;;;;-6.19;72.02;98343.09;4918602;29;20079;-66
2022/11/18 01:40:00;;;;;;;8.55;3.55;;;;;;;-6.21;72.05;98339.88;4918499;29;20082;-67
2022/11/18 01:42:25;;;;;;;6.95;3.28;;;;;;;-6.13;72.29;98358.94;4935479;29;20063;-67
2022/11/18 01:45:01;;;;;;;2.85;2.20;;;;;;;-6.25;71.68;98351.47;4918788;29;20040;-67
2022/11/18 01:47:30;;;;;;;4.30;3.40;;;;;;;-6.43;71.88;98337.84;4918479;29;20060;-66
2022/11/18 01:49:57;;;;;;;4.85;3.30;;;;;;;-6.37;72.53;98337.25;4902788;29;20040;-67
2022/11/18 01:52:23;;;;;;;3.97;2.47;;;;;;;-6.31;72.06;98336.63;4918184;29;20050;-67
2022/11/18 01:54:54;;;;;;;4.53;2.47;;;;;;;-6.40;71.90;98335.78;4935360;29;20493;-65
2022/11/18 01:57:21;;;;;;;6.70;3.58;;;;;;;-6.40;72.48;98340.94;4918442;29;20048;-66
2022/11/18 01:59:49;;;;;;;5.75;3.50;;;;;;;-6.28;72.34;98341.47;4918617;29;20159;-66
2022/11/18 02:02:15;;;;;;;7.10;3.47;;;;;;;-6.34;71.90;98344.66;4902461;29;20052;-67
2022/11/18 02:04:43;;;;;;;4.85;3.20;;;;;;;-6.33;72.24;98332.56;4918175;29;20394;-66
2022/11/18 02:07:10;;;;;;;5.68;3.35;;;;;;;-6.26;72.03;98334.38;4918012;29;20043;-66
2022/11/18 02:09:37;;;;;;;3.30;2.38;;;;;;;-6.20;71.57;98348.44;4918016;29;20047;-65
2022/11/18 02:12:03;;;;;;;5.65;2.75;;;;;;;-6.19;71.18;98329.41;4917853;29;20055;-66
2022/11/18 02:14:31;;;;;;;6.78;3.58;;;;;;;-6.14;71.73;98336.69;4902367;29;20035;-67
2022/11/18 02:17:11;;;;;;;7.78;3.53;;;;;;;-6.19;71.35;98327.63;4917881;29;20482;-66
2022/11/18 02:19:40;;;;;;;5.55;3.10;;;;;;;-6.09;71.70;98313.78;4935344;29;20051;-66
2022/11/18 02:22:34;;;;;;;4.20;2.70;;;;;;;-6.12;71.00;98325.22;4934831;29;20509;-66
2022/11/18 02:25:19;;;;;;;5.43;3.40;;;;;;;-6.19;71.35;98327.63;4902422;29;20039;-65
2022/11/18 02:27:55;;;;;;;5.78;2.70;;;;;;;-6.24;71.65;98322.13;4935040;29;20070;-67
2022/11/18 02:30:21;;;;;;;4.85;3.33;;;;;;;-6.22;72.38;98322.78;4902041;29;20059;-66
2022/11/18 02:32:57;;;;;;;4.82;3.17;;;;;;;-6.27;71.71;98319.06;4934372;29;20051;-66
2022/11/18 02:35:34;;;;;;;8.98;3.50;;;;;;;-6.24;71.70;98319.53;4917820;29;20122;-66
2022/11/18 02:38:17;;;;;;;4.25;2.90;;;;;;;-6.24;71.50;98316.16;4917650;29;20044;-66
2022/11/18 02:40:47;;;;;;;4.45;3.08;;;;;;;-6.29;71.75;98313.25;4934544;29;20048;-66
2022/11/18 02:43:17;;;;;;;7.30;3.70;;;;;;;-6.30;72.13;98307.28;4917506;29;20077;-66
2022/11/18 02:45:47;;;;;;;6.35;2.75;;;;;;;-6.22;71.57;98301.34;4917467;29;20050;-66
2022/11/18 02:48:13;;;;;;;5.47;3.45;;;;;;;-6.26;71.93;98306.00;4917608;29;20580;-66
2022/11/18 02:50:42;;;;;;;6.90;3.55;;;;;;;-6.15;71.70;98333.28;4934317;29;20126;-66
2022/11/18 02:53:09;;;;;;;5.88;3.33;;;;;;;-6.19;72.42;98308.78;4934666;29;20062;-66
2022/11/18 02:55:37;;;;;;;4.22;2.78;;;;;;;-6.15;71.46;98322.16;4917431;29;20055;-65
2022/11/18 02:58:04;;;;;;;7.40;3.75;;;;;;;-6.12;71.31;98316.69;4917500;29;20187;-66
2022/11/18 03:00:31;;;;;;;3.97;2.40;;;;;;;-6.04;71.49;98327.03;4917207;29;20047;-66
2022/11/18 03:02:56;;;;;;;4.97;2.63;;;;;;;-6.15;71.73;98302.31;4917661;29;20428;-66
2022/11/18 03:05:42;;;;;;;6.70;3.22;;;;;;;-6.23;71.98;98307.47;4917224;29;20059;-65
2022/11/18 03:08:12;;;;;;;6.10;2.22;;;;;;;-6.32;72.51;98304.06;4886033;29;20047;-65
2022/11/18 03:10:45;;;;;;;7.18;3.50;;;;;;;-6.17;72.76;98305.06;4917247;29;20099;-66
2022/11/18 03:13:17;;;;;;;6.70;2.90;;;;;;;-6.08;71.98;98318.00;4917455;29;20160;-65
2022/11/18 03:15:51;;;;;;;5.03;2.95;;;;;;;-6.00;71.58;98315.41;4934156;29;20043;-66
2022/11/18 03:18:31;;;;;;;5.13;3.03;;;;;;;-6.13;72.62;98305.56;4917368;29;20055;-66
2022/11/18 03:21:10;;;;;;;4.60;2.92;;;;;;;-6.12;71.98;98301.19;4901285;29;20047;-65
2022/11/18 03:23:45;;;;;;;6.10;3.28;;;;;;;-6.11;72.56;98295.09;4917178;29;20052;-66
2022/11/18 03:26:23;;;;;;;5.25;3.40;;;;;;;-6.13;72.27;98304.75;4901262;29;20040;-66
2022/11/18 03:28:54;;;;;;;6.45;3.83;;;;;;;-6.04;72.12;98302.03;4933806;29;20059;-66
2022/11/18 03:31:27;;;;;;;6.47;3.42;;;;;;;-5.99;72.51;98273.19;4937249;29;20052;-66
2022/11/18 03:34:07;;;;;;;6.90;3.92;;;;;;;-5.97;72.42;98281.56;4920805;29;20206;-65
2022/11/18 03:36:36;;;;;;;6.00;2.75;;;;;;;-6.02;71.88;98283.81;4905137;29;20043;-66
2022/11/18 03:39:04;;;;;;;4.32;2.83;;;;;;;-6.13;72.30;98284.91;4920915;29;20505;-66
2022/11/18 03:41:35;;;;;;;7.22;3.55;;;;;;;-6.21;72.66;98285.69;4904903;29;20138;-66
2022/11/18 03:44:13;;;;;;;5.10;3.40;;;;;;;-6.19;73.40;98286.34;4953483;29;20138;-67
2022/11/18 03:46:41;;;;;;;5.30;3.25;;;;;;;-6.14;72.66;98283.31;4939953;29;20142;-67
2022/11/18 03:49:10;;;;;;;5.40;3.05;;;;;;;-6.11;71.95;98290.75;4939642;29;20051;-67
2022/11/18 03:51:42;;;;;;;6.03;3.38;;;;;;;-6.03;72.22;98283.03;4939427;29;20086;-66
2022/11/18 03:54:11;;;;;;;5.65;2.78;;;;;;;-5.88;72.32;98274.59;4939369;29;20055;-65
2022/11/18 03:56:47;;;;;;;3.30;2.75;;;;;;;-5.86;71.33;98288.16;4923597;29;20062;-67
2022/11/18 03:59:19;;;;;;;5.57;2.70;;;;;;;-5.84;71.52;98284.47;4923797;29;20279;-68
2022/11/18 04:01:55;;;;;;;5.68;3.47;;;;;;;-5.83;71.50;98275.75;4907752;29;20134;-65
2022/11/18 04:04:23;;;;;;;6.93;3.38;;;;;;;-5.88;71.15;98279.75;4923241;29;20058;-66
2022/11/18 04:06:53;;;;;;;5.20;3.08;;;;;;;-6.00;71.12;98274.97;4939342;29;20055;-66
2022/11/18 04:09:23;;;;;;;4.47;2.65;;;;;;;-5.99;71.93;98283.50;4939348;29;20043;-67
2022/11/18 04:12:04;;;;;;;6.27;3.47;;;;;;;-5.99;72.12;98275.75;4923395;29;20047;-67
2022/11/18 04:14:32;;;;;;;5.35;3.28;;;;;;;-5.98;72.15;98280.75;4940220;29;20338;-67
2022/11/18 04:16:58;;;;;;;4.80;3.15;;;;;;;-5.97;71.25;98269.47;4939078;29;20047;-67
2022/11/18 04:19:23;;;;;;;5.82;3.28;;;;;;;-5.92;71.99;98284.44;4939098;29;20103;-67
2022/11/18 04:21:50;;;;;;;5.15;2.83;;;;;;;-5.98;71.86;98272.22;4956127;29;20047;-67
2022/11/18 04:24:16;;;;;;;6.97;3.72;;;;;;;-5.99;71.50;98274.00;4907386;29;20051;-66
2022/11/18 04:26:41;;;;;;;5.45;2.97;;;;;;;-5.96;71.38;98275.44;4938889;29;20175;-67
2022/11/18 04:29:07;;;;;;;5.53;3.35;;;;;;;-5.90;71.45;98273.97;4955997;29;20066;-69
2022/11/18 04:31:33;;;;;;;6.43;3.47;;;;;;;-5.90;71.55;98269.63;4954824;29;20070;-70
2022/11/18 04:33:58;;;;;;;4.40;2.80;;;;;;;-5.91;71.11;98274.91;4938701;29;20122;-67
2022/11/18 04:36:24;;;;;;;6.47;3.70;;;;;;;-5.92;70.88;98268.97;4922504;29;20058;-69
2022/11/18 04:38:50;;;;;;;5.63;3.65;;;;;;;-5.85;70.81;98269.94;4938682;29;20035;-67
2022/11/18 04:41:15;;;;;;;4.65;2.97;;;;;;;-5.92;70.61;98268.97;4955241;28;20087;-67
2022/11/18 04:43:41;;;;;;;3.88;2.60;;;;;;;-5.93;71.10;98277.69;4938635;29;20101;-67
2022/11/18 04:46:07;;;;;;;8.25;3.05;;;;;;;-5.90;71.08;98279.13;4938365;29;20046;-66
2022/11/18 04:48:32;;;;;;;7.00;3.70;;;;;;;-6.00;71.35;98294.78;4938754;29;20055;-67
2022/11/18 04:51:05;;;;;;;7.60;3.65;;;;;;;-5.93;71.18;98276.91;4938531;29;20054;-66
2022/11/18 04:53:30;;;;;;;4.72;2.97;;;;;;;-6.01;70.84;98275.91;4938811;29;20521;-67
2022/11/18 04:56:03;;;;;;;6.00;3.67;;;;;;;-5.98;71.40;98274.78;4955622;29;20051;-67
2022/11/18 04:58:29;;;;;;;6.53;3.60;;;;;;;-5.97;71.96;98271.22;4938517;29;20047;-67
2022/11/18 05:00:54;;;;;;;4.10;2.50;;;;;;;-5.97;71.13;98278.97;4922644;29;20054;-67
2022/11/18 05:03:20;;;;;;;5.72;3.30;;;;;;;-5.91;71.29;98274.91;4955771;29;20047;-68
2022/11/18 05:05:46;;;;;;;4.47;2.88;;;;;;;-5.93;70.66;98271.75;4954221;29;20571;-67
2022/11/18 05:08:12;;;;;;;6.78;3.22;;;;;;;-5.94;70.39;98273.53;4938279;29;20533;-66
2022/11/18 05:10:39;;;;;;;7.93;3.20;;;;;;;-5.91;70.94;98268.00;4954008;29;20540;-67
2022/11/18 05:13:04;;;;;;;9.35;3.60;;;;;;;-5.86;70.34;98278.63;4953853;29;20524;-66
2022/11/18 05:15:31;;;;;;;2.15;1.67;;;;;;;-5.90;70.24;98263.66;4954769;29;20047;-68
2022/11/18 05:17:56;;;;;;;4.72;3.22;;;;;;;-5.76;70.67;98278.50;4955352;29;20050;-69
2022/11/18 05:20:22;;;;;;;6.35;3.15;;;;;;;-5.77;69.84;98282.03;4937744;29;20043;-67
2022/11/18 05:22:48;;;;;;;5.80;3.15;;;;;;;-5.85;70.27;98276.84;4955279;29;20194;-68
2022/11/18 05:25:13;;;;;;;6.68;3.60;;;;;;;-5.90;70.46;98287.69;4937787;29;20047;-68
2022/11/18 05:27:39;;;;;;;6.45;3.58;;;;;;;-5.83;71.07;98288.63;4937497;29;20040;-67
2022/11/18 05:30:05;;;;;;;4.13;2.75;;;;;;;-5.93;70.16;98281.06;4954688;29;20062;-71
2022/11/18 05:32:31;;;;;;;5.03;2.50;;;;;;;-5.88;70.31;98296.06;4954848;29;20083;-69
2022/11/18 05:34:57;;;;;;;7.15;3.60;;;;;;;-5.90;70.24;98276.56;4921801;29;20070;-66
2022/11/18 05:37:23;;;;;;;4.68;3.13;;;;;;;-5.92;70.46;98281.84;4921640;29;20051;-65
2022/11/18 05:39:48;;;;;;;5.22;3.55;;;;;;;-6.08;70.62;98284.47;4921902;29;20057;-67
2022/11/18 05:44:58;;;;;;;6.05;3.40;;;;;;;-5.93;70.90;98282.06;4937395;29;20165;-67
2022/11/18 05:47:24;;;;;;;6.07;3.35;;;;;;;-5.89;70.26;98278.97;4937099;29;20090;-67
2022/11/18 05:49:50;;;;;;;6.30;3.72;;;;;;;-5.77;70.94;98276.88;4937599;29;20416;-67
2022/11/18 05:52:15;;;;;;;5.80;3.00;;;;;;;-5.72;70.47;98270.25;4952537;28;20423;-66
2022/11/18 05:54:46;;;;;;;8.57;3.50;;;;;;;-5.65;69.62;98290.28;4943402;29;20051;-67
2022/11/18 05:57:11;;;;;;;;;;;;;;;-5.61;69.28;98278.66;4903260;29;20044;-66
2022/11/18 05:59:37;;;;;;;3.38;2.50;;;;;;;-5.73;69.66;98279.00;4918415;29;20448;-68
2022/11/18 06:02:09;;;;;;;4.95;3.25;;;;;;;-5.69;70.11;98287.22;4916561;29;20040;-66
2022/11/18 06:04:52;;;;;;;5.05;2.63;;;;;;;-5.65;69.35;98282.53;4925633;29;20563;-68
2022/11/18 06:07:22;;;;;;;3.65;2.55;;;;;;;-5.70;70.08;98293.34;4950880;29;20053;-68
2022/11/18 06:09:51;;;;;;;4.93;3.23;;;;;;;-5.60;70.25;98291.41;4919782;29;20416;-69
2022/11/18 06:12:22;;;;;;;5.43;3.13;;;;;;;-5.48;69.32;98286.72;4950872;29;20062;-67
2022/11/18 06:14:57;;;;;;;7.75;3.92;;;;;;;-5.48;70.04;98286.72;4918937;29;20047;-68
2022/11/18 06:17:31;;;;;;;4.90;3.40;;;;;;;-5.43;70.05;98291.41;4918065;29;20047;-67
2022/11/18 06:19:57;;;;;;;5.43;3.35;;;;;;;-5.46;69.09;98289.97;4918913;29;20058;-67
2022/11/18 06:22:23;;;;;;;5.13;3.30;;;;;;;-5.44;69.17;98290.63;4934876;29;20501;-69
2022/11/18 06:24:48;;;;;;;4.85;3.40;;;;;;;-5.53;69.35;98282.06;4933751;29;20054;-67
2022/11/18 06:27:14;;;;;;;5.53;3.10;;;;;;;-5.45;69.27;98293.34;4933453;29;20135;-68
2022/11/18 06:29:40;;;;;;;6.93;3.38;;;;;;;-5.45;69.38;98285.59;4949310;29;20470;-67
2022/11/18 06:32:06;;;;;;;6.13;3.50;;;;;;;-5.47;70.04;98283.19;4948842;29;20051;-67
2022/11/18 06:34:31;;;;;;;5.97;3.05;;;;;;;-5.51;69.89;98274.13;4949933;29;20054;-67
2022/11/18 06:36:58;;;;;;;6.78;3.63;;;;;;;-5.38;69.69;98281.38;4949589;29;20412;-67
2022/11/18 06:39:24;;;;;;;4.20;3.22;;;;;;;-5.48;69.78;98278.97;4949358;29;20050;-67
2022/11/18 06:41:52;;;;;;;8.18;3.55;;;;;;;-5.47;69.99;98278.03;4933773;29;20054;-67
2022/11/18 06:44:18;;;;;;;4.65;3.30;;;;;;;-5.52;69.95;98285.44;4934662;29;20420;-68
2022/11/18 06:46:56;;;;;;;4.82;3.30;;;;;;;-5.41;69.47;98303.19;4934479;29;20124;-68
2022/11/18 06:49:25;;;;;;;5.72;3.40;;;;;;;-5.35;69.57;98275.91;4953568;29;20051;-65
2022/11/18 06:51:51;;;;;;;2.95;2.40;;;;;;;-5.35;69.76;98286.25;4936196;29;20535;-66
2022/11/18 06:54:17;;;;;;;8.10;3.65;;;;;;;-5.34;69.38;98278.31;4935638;29;20133;-66
2022/11/18 06:56:43;;;;;;;4.85;3.05;;;;;;;-5.33;69.25;98295.44;4934732;29;20138;-65
2022/11/18 06:59:08;;;;;;;6.18;2.88;;;;;;;-5.19;69.25;98288.00;4934884;29;20138;-66
2022/11/18 07:01:36;;;;;;;5.63;3.60;;;;;;;-5.16;68.94;98277.34;4920413;29;20062;-66
2022/11/18 07:04:02;;;;;;;4.78;2.85;;;;;;;-5.28;68.93;98287.19;4914836;29;20047;-65
2022/11/18 07:06:30;;;;;;;6.43;3.55;;;;;;;-5.32;69.60;98281.56;4915592;29;20403;-67
2022/11/18 07:08:56;;;;;;;4.43;2.90;;;;;;;-5.30;69.36;98287.34;4899643;29;20046;-65
2022/11/18 07:11:24;;;;;;;7.30;3.25;;;;;;;-5.20;69.24;98284.63;4904682;29;20448;-67
2022/11/18 07:13:50;;;;;;;6.18;3.50;;;;;;;-5.10;68.66;98281.84;4929552;29;20031;-69
2022/11/18 07:16:21;;;;;;;4.47;3.13;;;;;;;-5.04;68.00;98282.00;4930481;29;20044;-67
2022/11/18 07:18:48;;;;;;;8.02;4.10;;;;;;;-5.14;68.31;98276.22;4908959;29;20043;-66
2022/11/18 07:21:25;;;;;;;6.95;3.70;;;;;;;-5.01;69.11;98278.28;4914883;29;20044;-68
2022/11/18 07:23:51;;;;;;;6.20;3.65;;;;;;;-4.95;68.83;98280.19;4920624;29;20047;-67
2022/11/18 07:26:18;;;;;;;6.90;3.80;;;;;;;-4.88;69.18;98283.75;4916939;29;20046;-66
2022/11/18 07:28:43;;;;;;;8.90;3.88;;;;;;;-4.79;68.74;98274.19;4915408;29;20063;-67
2022/11/18 07:31:14;;;;;;;7.85;4.40;;;;;;;-4.85;68.43;98278.25;4949656;29;20143;-67
2022/11/18 07:33:41;;;;;;;4.65;3.10;;;;;;;-4.93;68.63;98274.88;4948354;29;20543;-66
2022/11/18 07:36:09;;;;;;;8.40;4.00;;;;;;;-4.88;68.77;98288.09;4931372;29;20134;-66
2022/11/18 07:38:35;;;;;;;3.97;3.28;;;;;;;-4.88;68.74;98278.56;4951789;29;20098;-66
2022/11/18 07:41:10;;;;;;;6.68;4.03;;;;;;;-4.82;68.36;98277.13;4951901;29;20043;-67
2022/11/18 07:43:37;;;;;;;6.00;3.40;;;;;;;-4.85;68.11;98280.81;4952244;29;20062;-66
2022/11/18 07:46:12;;;;;;;5.25;3.70;;;;;;;-4.85;68.59;98290.38;4952579;29;20459;-67
2022/11/18 07:48:38;;;;;;;4.53;3.45;;;;;;;-4.96;69.03;98293.28;4950541;29;20492;-66
2022/11/18 07:51:04;;;;;;;7.05;4.05;;;;;;;-4.88;69.21;98282.91;4903527;29;20051;-67
2022/11/18 07:53:31;;;;;;;5.97;3.55;;;;;;;-4.75;68.73;98287.59;4918935;29;20055;-68
2022/11/18 07:55:56;;;;;;;6.93;4.03;;;;;;;-4.68;68.21;98302.25;4902938;29;20070;-68
2022/11/18 07:58:22;;;;;;;6.63;3.60;;;;;;;-4.80;68.58;98301.78;4952246;29;20134;-67
2022/11/18 08:00:48;;;;;;;5.53;3.90;;;;;;;-4.67;68.13;98295.31;4935095;29;20134;-68
2022/11/18 08:03:13;;;;;;;5.00;3.40;;;;;;;-4.59;68.08;98285.75;4934042;29;20137;-66
2022/11/18 08:05:39;;;;;;;6.30;4.20;;;;;;;-4.52;67.92;98280.72;4934861;29;20043;-68
2022/11/18 08:08:04;;;;;;;5.78;4.03;;;;;;;-4.36;67.05;98292.75;4950659;29;20504;-67
2022/11/18 08:10:30;;;;;;;6.45;3.67;;;;;;;-4.45;66.86;98289.41;4950590;29;20098;-67
2022/11/18 08:12:56;;;;;;;3.42;2.65;;;;;;;-4.48;67.15;98294.91;4934883;29;20594;-67
2022/11/18 08:15:23;;;;;;;5.75;3.30;;;;;;;-4.40;66.96;98294.88;4952047;28;20043;-69
2022/11/18 08:17:49;;;;;;;5.72;3.30;;;;;;;-4.31;66.85;98303.41;4921637;29;20051;-67
2022/11/18 08:20:14;;;;;;;8.32;3.92;;;;;;;-4.48;67.16;98299.28;4955543;29;20517;-67
2022/11/18 08:22:40;;;;;;;6.47;3.80;;;;;;;-4.67;68.42;98284.97;4955356;29;20058;-68
2022/11/18 08:25:07;;;;;;;6.25;3.22;;;;;;;-4.54;68.03;98298.16;4955041;29;20512;-67
2022/11/18 08:27:32;;;;;;;5.40;3.80;;;;;;;-4.36;66.77;98295.34;4938063;29;20134;-67
2022/11/18 08:29:58;;;;;;;5.05;3.40;;;;;;;-4.32;67.08;98311.34;4955598;29;20147;-66
2022/11/18 08:32:24;;;;;;;7.28;4.15;;;;;;;-4.41;67.50;98293.28;4937149;29;20046;-66
2022/11/18 08:34:50;;;;;;;6.47;4.15;;;;;;;-4.43;67.24;98313.31;4938205;29;20043;-66
2022/11/18 08:37:16;;;;;;;6.97;4.25;;;;;;;-4.43;67.51;98297.81;4937790;29;20051;-68
2022/11/18 08:39:42;;;;;;;7.00;4.00;;;;;;;-4.20;67.85;98290.09;4905698;29;20067;-67
2022/11/18 08:42:08;;;;;;;5.40;3.35;;;;;;;-4.09;66.16;98298.44;4953560;29;20078;-67
2022/11/18 08:44:35;;;;;;;6.85;3.50;;;;;;;-4.18;67.33;98314.00;4921844;29;20042;-67
2022/11/18 08:47:01;;;;;;;5.75;3.50;;;;;;;-4.38;66.72;98292.13;4953967;29;20062;-69
2022/11/18 08:49:27;;;;;;;4.55;3.00;;;;;;;-4.20;66.28;98303.03;4954840;29;20121;-67
2022/11/18 08:51:52;;;;;;;6.55;3.95;;;;;;;-4.15;66.39;98318.88;4935306;29;20058;-68
2022/11/18 08:54:18;;;;;;;5.97;3.60;;;;;;;-4.20;66.28;98292.69;4955541;29;20047;-67
2022/11/18 08:56:44;;;;;;;5.45;3.45;;;;;;;-4.21;65.96;98300.63;4937795;29;20106;-67
2022/11/18 08:59:09;;;;;;;5.15;3.60;;;;;;;-4.02;65.87;98295.03;4954588;29;20424;-67
2022/11/18 09:01:36;;;;;;;6.18;3.83;;;;;;;-4.07;66.59;98302.47;4954588;29;20044;-67
2022/11/18 09:04:02;;;;;;;5.05;3.50;;;;;;;-4.03;66.34;98306.34;4937406;29;20520;-66
2022/11/18 09:06:28;;;;;;;6.43;3.85;;;;;;;-3.97;65.33;98303.09;4936723;29;20039;-67
2022/11/18 09:08:53;;;;;;;6.30;3.75;;;;;;;-4.03;65.15;98313.28;4954506;29;20421;-67
2022/11/18 09:11:28;;;;;;;5.93;3.20;;;;;;;-3.93;66.24;98313.91;4921359;29;20054;-67
2022/11/18 09:13:56;;;;;;;5.88;4.07;;;;;;;-3.90;65.57;98316.94;4905676;29;20420;-67
2022/11/18 09:16:23;;;;;;;6.40;3.42;;;;;;;-3.88;65.74;98317.59;4954184;29;20168;-67
2022/11/18 09:18:49;;;;;;;4.03;3.33;;;;;;;-3.91;65.53;98312.75;4937287;29;20461;-67
2022/11/18 09:21:15;;;;;;;5.63;4.15;;;;;;;-3.96;65.96;98324.59;4953649;29;20054;-67
2022/11/18 09:23:41;;;;;;;8.48;4.38;;;;;;;-3.96;66.06;98317.63;4921301;29;20083;-68
2022/11/18 09:26:09;;;;;;;5.00;3.75;;;;;;;-4.06;65.83;98329.16;4937017;29;20287;-68
2022/11/18 09:28:35;;;;;;;6.20;3.20;;;;;;;-4.07;65.66;98315.44;4936589;29;20074;-68
2022/11/18 09:31:09;;;;;;;4.70;3.08;;;;;;;-4.08;65.28;98320.78;4953055;29;20393;-68
2022/11/18 09:33:36;;;;;;;5.72;3.83;;;;;;;-4.16;65.96;98317.25;4954787;29;20047;-68
2022/11/18 09:36:11;;;;;;;6.30;3.97;;;;;;;-4.13;66.93;98323.88;4936139;29;20535;-69
2022/11/18 09:38:37;;;;;;;4.55;3.25;;;;;;;-4.13;65.74;98334.22;4936946;29;20061;-69
2022/11/18 09:41:05;;;;;;;6.38;3.83;;;;;;;-4.14;65.65;98322.28;4936693;29;20043;-69
2022/11/18 09:44:00;;;;;;;6.35;3.75;;;;;;;-4.24;66.45;98316.47;4936434;29;20047;-70
2022/11/18 09:46:38;;;;;;;6.55;4.35;;;;;;;-4.17;67.46;98320.03;4930116;29;20059;-67
2022/11/18 09:49:13;;;;;;;8.55;4.25;;;;;;;-4.21;67.91;98313.56;4921272;29;20035;-69
2022/11/18 09:51:41;;;;;;;5.72;3.63;;;;;;;-4.15;66.72;98320.63;4954199;29;20039;-69
2022/11/18 09:54:21;;;;;;;7.35;3.95;;;;;;;-4.06;66.72;98309.25;4905827;29;20322;-67
2022/11/18 09:56:48;;;;;;;7.03;4.30;;;;;;;-4.00;66.04;98316.38;4953153;29;20410;-69
2022/11/18 09:59:19;;;;;;;6.43;4.00;;;;;;;-3.96;66.42;98322.81;4905186;29;20050;-68
2022/11/18 10:01:45;;;;;;;7.40;3.63;;;;;;;-3.86;66.11;98329.56;4936540;29;20489;-69
2022/11/18 10:04:16;;;;;;;5.78;3.72;;;;;;;-3.85;66.45;98320.78;4935707;29;20043;-69
2022/11/18 10:06:43;;;;;;;6.30;4.07;;;;;;;-3.84;65.26;98317.25;4920876;29;20555;-68
2022/11/18 10:09:39;;;;;;;9.85;4.93;;;;;;;-3.92;66.18;98312.91;4954086;29;20133;-68
2022/11/18 10:12:20;;;;;;;5.63;3.05;;;;;;;-3.81;65.55;98316.91;4936407;29;20058;-69
2022/11/18 10:15:10;;;;;;;5.60;3.90;;;;;;;-3.79;65.69;98325.31;4954608;29;20151;-68
2022/11/18 10:17:43;;;;;;;8.13;4.03;;;;;;;-3.71;65.50;98317.47;4953963;29;20043;-69
2022/11/18 10:20:33;;;;;;;9.88;4.47;;;;;;;-3.67;66.08;98324.75;4935232;29;20035;-68
2022/11/18 10:22:58;;;;;;;5.38;3.58;;;;;;;-3.69;66.58;98318.91;4951476;29;20103;-68
2022/11/18 10:25:24;;;;;;;6.90;4.15;;;;;;;-3.67;65.19;98318.75;4932692;29;20067;-68
2022/11/18 10:27:51;;;;;;;7.50;4.13;;;;;;;-3.66;65.92;98325.53;4932734;29;20532;-67
2022/11/18 10:30:23;;;;;;;4.65;3.42;;;;;;;-3.76;65.09;98332.75;4932854;29;20048;-67
2022/11/18 10:33:03;;;;;;;5.70;4.07;;;;;;;-3.70;65.52;98343.22;4899897;29;20048;-68
2022/11/18 10:35:35;;;;;;;6.75;4.18;;;;;;;-3.73;65.13;98333.19;4928741;29;20055;-68
2022/11/18 10:38:08;;;;;;;8.20;4.10;;;;;;;-3.82;65.68;98326.47;4913911;29;20091;-68
2022/11/18 10:40:36;;;;;;;10.00;4.82;;;;;;;-3.75;65.31;98340.31;4914813;29;20085;-67
2022/11/18 10:43:01;;;;;;;6.63;4.13;;;;;;;-3.78;66.00;98347.63;4897453;29;20054;-68
2022/11/18 10:45:29;;;;;;;7.40;4.55;;;;;;;-3.71;67.20;98348.56;4933540;29;20035;-68
2022/11/18 10:48:14;;;;;;;6.45;4.60;;;;;;;-3.60;66.75;98345.56;4915791;29;20047;-67
2022/11/18 10:50:42;;;;;;;8.13;4.53;;;;;;;-3.47;65.86;98355.34;4930223;29;20039;-67
2022/11/18 10:53:37;;;;;;;6.32;4.40;;;;;;;-3.72;66.35;98354.72;4900150;29;20096;-67
2022/11/18 10:56:12;;;;;;;6.13;3.72;;;;;;;-3.68;67.16;98355.97;4919288;29;20079;-68
2022/11/18 10:58:46;;;;;;;5.40;3.65;;;;;;;-3.85;66.99;98354.44;4915963;29;20106;-68
2022/11/18 11:01:18;;;;;;;5.55;3.35;;;;;;;-3.79;66.97;98356.38;4915488;29;20539;-68
2022/11/18 11:04:11;;;;;;;5.95;3.78;;;;;;;-3.86;66.66;98360.63;4930802;29;20143;-68
2022/11/18 11:06:37;;;;;;;6.97;3.75;;;;;;;-3.74;66.56;98351.47;4928504;29;20492;-68
2022/11/18 11:09:09;;;;;;;7.03;3.50;;;;;;;-3.72;66.52;98347.75;4914624;29;20067;-69
2022/11/18 11:11:41;;;;;;;5.90;4.28;;;;;;;-3.74;67.79;98348.91;4897806;29;20043;-67
2022/11/18 11:14:15;;;;;;;6.97;4.70;;;;;;;-3.68;67.84;98358.56;4913392;29;20122;-68
2022/11/18 11:16:58;;;;;;;6.07;4.47;;;;;;;-3.70;68.10;98360.53;4912567;29;20048;-68
2022/11/18 11:19:30;;;;;;;6.80;4.13;;;;;;;-3.86;66.96;98355.44;4914628;29;20048;-68
2022/11/18 11:21:56;;;;;;;8.23;4.40;;;;;;;-3.87;68.58;98359.81;4927513;29;20071;-66
2022/11/18 11:24:24;;;;;;;9.30;4.60;;;;;;;-3.72;68.38;98365.06;4929955;29;20528;-66
2022/11/18 11:26:59;;;;;;;7.78;5.10;;;;;;;-3.57;67.90;98365.94;4929743;29;20060;-67
2022/11/18 11:29:28;;;;;;;5.38;4.05;;;;;;;-3.62;67.24;98373.41;4913598;29;20071;-68
2022/11/18 11:31:57;;;;;;;5.70;3.55;;;;;;;-3.57;67.48;98370.31;4912880;29;20102;-66
2022/11/18 11:34:30;;;;;;;6.13;4.45;;;;;;;-3.75;66.74;98368.81;4930888;29;20090;-66
2022/11/18 11:37:29;;;;;;;5.75;3.85;;;;;;;-3.79;67.32;98375.31;4898739;29;20059;-64
2022/11/18 11:40:15;;;;;;;8.27;4.10;;;;;;;-3.84;68.28;98371.63;4897969;29;20048;-66
2022/11/18 11:43:13;;;;;;;6.88;4.05;;;;;;;-3.83;67.38;98383.59;4916147;29;20152;-65
2022/11/18 11:46:21;;;;;;;6.90;3.67;;;;;;;-4.02;67.63;98385.63;4932425;29;20619;-66
2022/11/18 11:49:15;;;;;;;6.32;3.90;;;;;;;-3.82;68.79;98390.38;4879959;29;20111;-66
2022/11/18 11:51:54;;;;;;;6.53;3.70;;;;;;;-3.75;68.08;98386.94;4931897;29;20055;-65
2022/11/18 11:54:41;;;;;;;5.60;4.07;;;;;;;-3.77;67.54;98396.66;4904260;29;20125;-66